createdAt,value
2018-12-24T00:01:16.282Z,6.25
2018-12-24T00:02:16.224Z,6.27
2018-12-24T00:04:13.266Z,6.25
2018-12-24T00:05:13.221Z,6.30
2018-12-24T00:07:08.663Z,6.21
2018-12-24T00:08:08.603Z,6.21
2018-12-24T00:10:04.439Z,6.05
2018-12-24T00:11:04.395Z,6.03
2018-12-24T00:13:00.168Z,6.03
2018-12-24T00:13:59.771Z,6.01
2018-12-24T00:16:09.321Z,6.01
2018-12-24T00:17:09.277Z,5.87
2018-12-24T00:19:05.887Z,5.95
2018-12-24T00:20:05.844Z,6.02
2018-12-24T00:22:02.779Z,5.98
2018-12-24T00:23:02.705Z,5.99
2018-12-24T00:24:59.136Z,5.87
2018-12-24T00:25:59.129Z,5.98
2018-12-24T00:27:56.036Z,5.93
2018-12-24T00:28:55.958Z,5.92
2018-12-24T00:30:51.459Z,5.87
2018-12-24T00:31:51.628Z,5.87
2018-12-24T00:33:48.364Z,5.84
2018-12-24T00:34:48.316Z,5.96
2018-12-24T00:36:45.472Z,5.93
2018-12-24T00:37:45.431Z,5.87
2018-12-24T00:40:44.686Z,5.92
2018-12-24T00:41:44.640Z,5.95
2018-12-24T00:43:40.408Z,5.92
2018-12-24T00:44:40.349Z,5.87
2018-12-24T00:46:35.803Z,5.87
2018-12-24T00:47:35.744Z,5.80
2018-12-24T00:49:31.945Z,5.85
2018-12-24T00:50:31.899Z,5.88
2018-12-24T00:52:27.680Z,5.87
2018-12-24T00:53:27.621Z,5.83
2018-12-24T00:55:23.905Z,5.83
2018-12-24T00:56:23.861Z,5.87
2018-12-24T00:58:19.767Z,5.84
2018-12-24T00:59:19.686Z,5.88
2018-12-24T01:01:15.282Z,5.90
2018-12-24T01:02:15.236Z,5.83
2018-12-24T01:04:10.729Z,5.87
2018-12-24T01:05:10.674Z,5.77
2018-12-24T01:07:06.566Z,5.78
2018-12-24T01:08:06.509Z,5.78
2018-12-24T01:10:01.974Z,5.83
2018-12-24T01:11:01.925Z,5.84
2018-12-24T01:12:57.912Z,5.75
2018-12-24T01:13:57.853Z,5.69
2018-12-24T01:15:52.231Z,5.75
2018-12-24T01:16:52.187Z,5.73
2018-12-24T01:18:47.823Z,5.81
2018-12-24T01:19:47.769Z,5.81
2018-12-24T01:21:43.163Z,5.78
2018-12-24T01:22:43.118Z,5.80
2018-12-24T01:24:39.912Z,5.83
2018-12-24T01:25:39.856Z,5.84
2018-12-24T01:27:35.285Z,5.78
2018-12-24T01:28:35.237Z,5.78
2018-12-24T01:30:32.246Z,5.77
2018-12-24T01:31:32.185Z,5.85
2018-12-24T01:33:28.081Z,5.84
2018-12-24T01:34:28.023Z,5.87
2018-12-24T01:36:23.871Z,5.81
2018-12-24T01:37:23.825Z,5.84
2018-12-24T01:39:19.530Z,5.81
2018-12-24T01:40:19.476Z,5.80
2018-12-24T01:42:15.376Z,5.80
2018-12-24T01:43:15.326Z,5.81
2018-12-24T01:45:10.801Z,5.83
2018-12-24T01:46:10.742Z,5.78
2018-12-24T01:48:19.950Z,5.85
2018-12-24T01:49:19.886Z,5.81
2018-12-24T01:51:16.317Z,5.80
2018-12-24T01:52:16.282Z,5.84
2018-12-24T01:54:12.741Z,5.80
2018-12-24T01:55:12.686Z,5.88
2018-12-24T01:57:09.129Z,5.78
2018-12-24T01:58:09.056Z,5.83
2018-12-24T02:00:05.422Z,5.87
2018-12-24T02:01:05.364Z,5.83
2018-12-24T02:03:01.785Z,5.81
2018-12-24T02:04:01.763Z,5.70
2018-12-24T02:06:09.453Z,5.77
2018-12-24T02:07:09.659Z,5.77
2018-12-24T02:09:04.909Z,5.83
2018-12-24T02:10:04.850Z,5.74
2018-12-24T02:12:00.696Z,5.70
2018-12-24T02:13:00.650Z,5.74
2018-12-24T02:14:57.056Z,5.74
2018-12-24T02:15:56.999Z,5.66
2018-12-24T02:17:52.610Z,5.73
2018-12-24T02:18:52.560Z,5.65
2018-12-24T02:20:48.068Z,5.67
2018-12-24T02:21:48.013Z,5.60
2018-12-24T02:23:43.432Z,5.65
2018-12-24T02:24:43.373Z,5.63
2018-12-24T02:26:39.178Z,5.67
2018-12-24T02:27:39.126Z,5.60
2018-12-24T02:29:34.704Z,5.60
2018-12-24T02:30:34.650Z,5.65
2018-12-24T02:32:30.597Z,5.63
2018-12-24T02:33:30.549Z,5.65
2018-12-24T02:35:26.396Z,5.69
2018-12-24T02:36:26.338Z,5.65
2018-12-24T02:38:21.829Z,5.59
2018-12-24T02:39:21.780Z,5.58
2018-12-24T02:41:17.244Z,5.74
2018-12-24T02:42:17.188Z,5.66
2018-12-24T02:44:12.700Z,5.58
2018-12-24T02:45:12.637Z,5.59
2018-12-24T02:47:09.066Z,5.67
2018-12-24T02:48:09.021Z,5.63
2018-12-24T02:50:04.903Z,5.73
2018-12-24T02:51:04.845Z,5.63
2018-12-24T02:53:12.631Z,5.66
2018-12-24T02:54:12.581Z,5.67
2018-12-24T02:56:09.268Z,5.67
2018-12-24T02:57:09.205Z,5.63
2018-12-24T02:59:04.737Z,5.69
2018-12-24T03:00:04.767Z,5.66
2018-12-24T03:02:01.883Z,5.67
2018-12-24T03:03:01.817Z,5.66
2018-12-24T03:04:58.192Z,5.69
2018-12-24T03:05:58.145Z,5.70
2018-12-24T03:07:54.802Z,5.62
2018-12-24T03:08:54.765Z,5.73
2018-12-24T03:10:51.171Z,5.69
2018-12-24T03:11:51.129Z,5.59
2018-12-24T03:13:47.538Z,5.60
2018-12-24T03:14:47.725Z,5.42
2018-12-24T03:16:45.835Z,5.40
2018-12-24T03:17:45.783Z,5.42
2018-12-24T03:19:42.433Z,5.45
2018-12-24T03:20:42.445Z,5.44
2018-12-24T03:22:39.299Z,5.35
2018-12-24T03:23:38.781Z,5.32
2018-12-24T03:25:34.557Z,5.37
2018-12-24T03:26:34.492Z,5.32
2018-12-24T03:28:32.070Z,5.30
2018-12-24T03:29:30.984Z,5.19
2018-12-24T03:31:29.479Z,5.15
2018-12-24T03:32:29.426Z,5.14
2018-12-24T03:34:25.812Z,5.19
2018-12-24T03:35:25.785Z,5.06
2018-12-24T03:37:22.281Z,4.99
2018-12-24T03:38:22.142Z,5.04
2018-12-24T03:40:18.611Z,4.91
2018-12-24T03:41:18.584Z,4.77
2018-12-24T03:43:15.163Z,4.77
2018-12-24T03:44:15.107Z,4.75
2018-12-24T03:46:11.481Z,4.67
2018-12-24T03:47:11.431Z,4.64
2018-12-24T03:49:07.876Z,4.71
2018-12-24T03:50:07.833Z,4.65
2018-12-24T03:52:16.057Z,4.68
2018-12-24T03:53:16.545Z,4.72
2018-12-24T03:55:11.419Z,4.68
2018-12-24T03:56:11.365Z,4.68
2018-12-24T03:58:07.855Z,4.69
2018-12-24T03:59:07.792Z,4.75
2018-12-24T04:01:15.596Z,4.64
2018-12-24T04:02:15.534Z,4.62
2018-12-24T04:04:11.909Z,4.62
2018-12-24T04:05:11.937Z,4.50
2018-12-24T04:07:08.417Z,4.59
2018-12-24T04:08:08.463Z,4.56
2018-12-24T04:10:04.815Z,4.51
2018-12-24T04:11:04.794Z,4.51
2018-12-24T04:13:00.940Z,4.39
2018-12-24T04:14:00.855Z,4.44
2018-12-24T04:15:57.579Z,4.54
2018-12-24T04:16:57.724Z,4.53
2018-12-24T04:18:53.889Z,4.54
2018-12-24T04:19:53.825Z,4.39
2018-12-24T04:21:50.267Z,4.29
2018-12-24T04:22:50.245Z,4.38
2018-12-24T04:24:45.930Z,4.21
2018-12-24T04:25:45.882Z,4.16
2018-12-24T04:27:42.080Z,4.32
2018-12-24T04:28:41.281Z,4.16
2018-12-24T04:30:38.211Z,4.20
2018-12-24T04:31:38.208Z,4.16
2018-12-24T04:33:34.758Z,4.08
2018-12-24T04:34:34.702Z,4.17
2018-12-24T04:36:31.481Z,4.13
2018-12-24T04:37:31.403Z,4.08
2018-12-24T04:39:27.867Z,3.98
2018-12-24T04:40:27.859Z,4.07
2018-12-24T04:42:24.677Z,4.06
2018-12-24T04:44:41.270Z,4.00
2018-12-24T04:45:41.227Z,3.93
2018-12-24T04:47:48.175Z,4.06
2018-12-24T04:48:48.114Z,3.96
2018-12-24T04:50:43.578Z,3.92
2018-12-24T04:51:43.532Z,3.95
2018-12-24T04:53:40.480Z,3.77
2018-12-24T04:54:40.417Z,3.78
2018-12-24T04:56:36.457Z,3.64
2018-12-24T04:57:36.394Z,3.49
2018-12-24T04:59:32.335Z,3.49
2018-12-24T05:00:32.289Z,3.33
2018-12-24T05:02:27.949Z,3.44
2018-12-24T05:03:27.892Z,3.41
2018-12-24T05:05:23.361Z,3.52
2018-12-24T05:06:23.314Z,3.41
2018-12-24T05:08:18.838Z,3.53
2018-12-24T05:09:18.780Z,3.56
2018-12-24T05:11:15.186Z,3.33
2018-12-24T05:12:15.138Z,3.49
2018-12-24T05:14:11.196Z,3.49
2018-12-24T05:15:11.135Z,3.42
2018-12-24T05:17:06.951Z,3.53
2018-12-24T05:18:06.891Z,3.46
2018-12-24T05:20:02.370Z,3.45
2018-12-24T05:21:02.323Z,3.46
2018-12-24T05:22:58.190Z,3.45
2018-12-24T05:23:58.130Z,3.44
2018-12-24T05:25:53.570Z,3.44
2018-12-24T05:26:54.761Z,3.52
2018-12-24T05:28:50.881Z,3.49
2018-12-24T05:29:50.820Z,3.50
2018-12-24T05:31:47.315Z,3.49
2018-12-24T05:32:47.266Z,3.54
2018-12-24T05:34:43.756Z,3.49
2018-12-24T05:35:43.696Z,3.54
2018-12-24T05:37:39.526Z,3.50
2018-12-24T05:38:39.462Z,3.45
2018-12-24T05:40:35.268Z,3.41
2018-12-24T05:41:35.225Z,3.50
2018-12-24T05:43:31.657Z,3.46
2018-12-24T05:44:31.604Z,3.41
2018-12-24T05:46:27.064Z,3.39
2018-12-24T05:47:27.009Z,3.37
2018-12-24T05:49:23.448Z,3.37
2018-12-24T05:50:23.390Z,3.35
2018-12-24T05:52:19.055Z,3.41
2018-12-24T05:53:19.002Z,3.37
2018-12-24T05:55:14.531Z,3.39
2018-12-24T05:56:14.471Z,3.25
2018-12-24T05:58:23.785Z,3.34
2018-12-24T05:59:23.736Z,3.23
2018-12-24T06:01:20.166Z,3.41
2018-12-24T06:02:20.106Z,3.42
2018-12-24T06:04:26.905Z,3.34
2018-12-24T06:05:26.846Z,3.39
2018-12-24T06:07:22.358Z,3.34
2018-12-24T06:08:22.308Z,3.31
2018-12-24T06:10:17.752Z,3.39
2018-12-24T06:11:17.697Z,3.34
2018-12-24T06:13:13.129Z,3.46
2018-12-24T06:14:13.084Z,3.25
2018-12-24T06:16:08.526Z,3.16
2018-12-24T06:17:08.467Z,3.22
2018-12-24T06:19:03.887Z,3.13
2018-12-24T06:20:03.832Z,3.26
2018-12-24T06:21:59.316Z,3.28
2018-12-24T06:22:59.274Z,3.26
2018-12-24T06:24:54.769Z,3.42
2018-12-24T06:25:55.711Z,3.26
2018-12-24T06:27:50.379Z,3.25
2018-12-24T06:28:50.331Z,3.25
2018-12-24T06:30:45.955Z,3.30
2018-12-24T06:31:45.898Z,3.28
2018-12-24T06:33:42.425Z,3.25
2018-12-24T06:34:42.378Z,3.23
2018-12-24T06:36:39.303Z,3.25
2018-12-24T06:37:39.248Z,3.25
2018-12-24T06:39:36.244Z,3.25
2018-12-24T06:40:36.167Z,3.28
2018-12-24T06:42:31.785Z,3.25
2018-12-24T06:43:31.622Z,3.20
2018-12-24T06:45:27.340Z,3.26
2018-12-24T06:46:27.279Z,3.30
2018-12-24T06:48:35.020Z,3.23
2018-12-24T06:50:52.242Z,3.16
2018-12-24T06:51:52.131Z,3.19
2018-12-24T06:53:49.080Z,3.16
2018-12-24T06:54:49.060Z,3.15
2018-12-24T06:56:44.805Z,3.19
2018-12-24T06:57:44.784Z,3.05
2018-12-24T06:59:40.535Z,3.04
2018-12-24T07:00:40.481Z,3.10
2018-12-24T07:02:37.814Z,2.95
2018-12-24T07:03:37.705Z,3.10
2018-12-24T07:05:37.669Z,3.16
2018-12-24T07:06:34.387Z,3.08
2018-12-24T07:08:30.655Z,3.15
2018-12-24T07:09:29.590Z,3.15
2018-12-24T07:11:27.693Z,3.12
2018-12-24T07:12:27.618Z,3.15
2018-12-24T07:15:26.096Z,3.13
2018-12-24T07:16:26.012Z,3.15
2018-12-24T07:18:21.435Z,3.15
2018-12-24T07:19:21.380Z,3.26
2018-12-24T07:21:16.779Z,3.26
2018-12-24T07:22:16.719Z,3.20
2018-12-24T07:24:12.177Z,3.23
2018-12-24T07:25:12.127Z,3.26
2018-12-24T07:27:07.570Z,3.20
2018-12-24T07:28:07.507Z,3.17
2018-12-24T07:30:03.083Z,3.31
2018-12-24T07:31:03.033Z,3.20
2018-12-24T07:32:57.449Z,3.23
2018-12-24T07:33:57.389Z,3.16
2018-12-24T07:35:53.201Z,3.31
2018-12-24T07:36:53.154Z,3.28
2018-12-24T07:38:48.608Z,3.22
2018-12-24T07:39:48.545Z,3.28
2018-12-24T07:41:44.391Z,3.20
2018-12-24T07:42:44.367Z,3.20
2018-12-24T07:44:39.501Z,3.15
2018-12-24T07:45:39.452Z,3.20
2018-12-24T07:47:49.183Z,3.07
2018-12-24T07:48:49.130Z,3.04
2018-12-24T07:50:46.326Z,3.12
2018-12-24T07:51:46.285Z,3.12
2018-12-24T07:53:42.983Z,3.10
2018-12-24T07:54:42.926Z,3.04
2018-12-24T07:56:39.575Z,3.08
2018-12-24T07:57:39.524Z,2.90
2018-12-24T07:59:35.920Z,2.99
2018-12-24T08:00:35.864Z,2.94
2018-12-24T08:02:32.424Z,2.81
2018-12-24T08:03:32.360Z,2.80
2018-12-24T08:05:28.760Z,2.69
2018-12-24T08:07:44.731Z,2.74
2018-12-24T08:08:44.670Z,2.65
2018-12-24T08:10:40.553Z,2.61
2018-12-24T08:11:40.506Z,2.62
2018-12-24T08:13:36.959Z,2.58
2018-12-24T08:14:36.889Z,2.56
2018-12-24T08:16:33.821Z,2.48
2018-12-24T08:17:33.751Z,2.38
2018-12-24T08:19:30.191Z,2.30
2018-12-24T08:20:30.230Z,2.43
2018-12-24T08:22:27.518Z,2.25
2018-12-24T08:23:27.198Z,2.22
2018-12-24T08:25:23.894Z,2.07
2018-12-24T08:26:23.842Z,2.11
2018-12-24T08:28:20.239Z,2.07
2018-12-24T08:29:20.218Z,2.05
2018-12-24T08:31:28.252Z,2.01
2018-12-24T08:32:28.300Z,1.93
2018-12-24T08:34:22.545Z,2.00
2018-12-24T08:35:22.486Z,1.83
2018-12-24T08:37:17.724Z,1.85
2018-12-24T08:38:17.676Z,1.86
2018-12-24T08:40:13.168Z,2.00
2018-12-24T08:41:13.086Z,1.86
2018-12-24T08:43:08.586Z,1.86
2018-12-24T08:44:08.535Z,1.88
2018-12-24T08:46:18.018Z,1.82
2018-12-24T08:47:17.949Z,1.79
2018-12-24T08:49:15.168Z,1.81
2018-12-24T08:50:15.102Z,1.75
2018-12-24T08:52:11.914Z,1.74
2018-12-24T08:53:11.826Z,1.81
2018-12-24T08:55:09.744Z,1.71
2018-12-24T08:56:09.656Z,1.79
2018-12-24T08:58:06.149Z,1.70
2018-12-24T08:59:06.122Z,1.63
2018-12-24T09:01:02.481Z,1.64
2018-12-24T09:02:02.421Z,1.65
2018-12-24T09:03:59.768Z,1.64
2018-12-24T09:04:59.697Z,1.65
2018-12-24T09:06:56.132Z,1.65
2018-12-24T09:07:56.080Z,1.68
2018-12-24T09:09:51.986Z,1.81
2018-12-24T09:10:51.948Z,1.75
2018-12-24T09:12:47.608Z,1.83
2018-12-24T09:13:47.495Z,1.79
2018-12-24T09:15:43.991Z,1.85
2018-12-24T09:16:45.959Z,1.85
2018-12-24T09:18:40.324Z,1.92
2018-12-24T09:19:40.280Z,1.90
2018-12-24T09:21:36.742Z,2.00
2018-12-24T09:22:36.675Z,2.02
2018-12-24T09:24:33.086Z,2.01
2018-12-24T09:25:33.046Z,2.09
2018-12-24T09:27:29.450Z,2.22
2018-12-24T09:28:30.398Z,2.19
2018-12-24T09:30:27.690Z,2.12
2018-12-24T09:31:27.646Z,2.14
2018-12-24T09:33:34.594Z,2.22
2018-12-24T09:34:34.544Z,2.15
2018-12-24T09:36:31.010Z,2.09
2018-12-24T09:37:30.953Z,2.14
2018-12-24T09:39:26.501Z,2.12
2018-12-24T09:40:26.453Z,2.22
2018-12-24T09:42:21.965Z,2.32
2018-12-24T09:43:21.904Z,2.29
2018-12-24T09:45:17.374Z,2.25
2018-12-24T09:46:17.328Z,2.26
2018-12-24T09:48:25.039Z,2.29
2018-12-24T09:49:24.973Z,2.26
2018-12-24T09:51:21.895Z,2.36
2018-12-24T09:52:21.468Z,2.37
2018-12-24T09:54:19.512Z,2.40
2018-12-24T09:55:19.498Z,2.40
2018-12-24T09:57:44.993Z,2.59
2018-12-24T09:58:44.932Z,2.51
2018-12-24T10:00:40.548Z,2.62
2018-12-24T10:01:40.505Z,2.71
2018-12-24T10:03:34.995Z,2.71
2018-12-24T10:04:34.927Z,2.68
2018-12-24T10:06:30.329Z,2.71
2018-12-24T10:07:30.269Z,2.68
2018-12-24T10:09:26.691Z,2.76
2018-12-24T10:10:26.641Z,2.74
2018-12-24T10:12:22.578Z,2.84
2018-12-24T10:13:22.516Z,2.73
2018-12-24T10:15:19.173Z,2.77
2018-12-24T10:16:19.124Z,2.81
2018-12-24T10:18:14.592Z,2.68
2018-12-24T10:19:14.536Z,2.73
2018-12-24T10:21:11.207Z,2.79
2018-12-24T10:22:11.159Z,2.92
2018-12-24T10:24:07.252Z,2.80
2018-12-24T10:25:07.189Z,2.90
2018-12-24T10:27:03.093Z,2.90
2018-12-24T10:28:03.034Z,2.98
2018-12-24T10:29:58.505Z,3.08
2018-12-24T10:30:58.453Z,2.98
2018-12-24T10:32:55.988Z,3.05
2018-12-24T10:33:55.923Z,3.10
2018-12-24T10:35:51.477Z,3.17
2018-12-24T10:36:51.432Z,3.19
2018-12-24T10:38:48.624Z,3.16
2018-12-24T10:39:48.566Z,3.16
2018-12-24T10:41:44.945Z,3.16
2018-12-24T10:42:44.896Z,3.23
2018-12-24T10:44:53.136Z,3.31
2018-12-24T10:45:42.437Z,3.37
2018-12-24T10:47:36.772Z,3.57
2018-12-24T10:48:36.709Z,3.56
2018-12-24T10:50:33.157Z,3.63
2018-12-24T10:51:33.122Z,3.72
2018-12-24T10:53:29.529Z,3.86
2018-12-24T10:54:29.469Z,3.80
2018-12-24T10:56:25.958Z,3.63
2018-12-24T10:57:26.009Z,3.68
2018-12-24T10:59:33.662Z,3.63
2018-12-24T11:00:33.602Z,3.67
2018-12-24T11:02:30.034Z,3.77
2018-12-24T11:03:29.989Z,3.81
2018-12-24T11:05:37.903Z,3.86
2018-12-24T11:06:37.846Z,3.82
2018-12-24T11:08:34.247Z,3.80
2018-12-24T11:09:34.238Z,3.89
2018-12-24T11:11:30.262Z,4.00
2018-12-24T11:12:30.222Z,4.07
2018-12-24T11:14:38.564Z,4.10
2018-12-24T11:15:38.505Z,4.20
2018-12-24T11:17:34.966Z,4.29
2018-12-24T11:18:34.917Z,4.34
2018-12-24T11:20:31.047Z,4.44
2018-12-24T11:21:30.986Z,4.44
2018-12-24T11:23:26.420Z,4.53
2018-12-24T11:24:26.372Z,4.53
2018-12-24T11:26:21.903Z,4.61
2018-12-24T11:27:21.843Z,4.68
2018-12-24T11:29:18.309Z,4.86
2018-12-24T11:30:18.248Z,4.93
2018-12-24T11:32:14.053Z,4.99
2018-12-24T11:33:14.007Z,5.08
2018-12-24T11:35:09.536Z,5.02
2018-12-24T11:36:09.476Z,5.04
2018-12-24T11:38:05.328Z,5.15
2018-12-24T11:39:05.280Z,5.15
2018-12-24T11:41:04.159Z,5.14
2018-12-24T11:42:03.677Z,5.20
2018-12-24T11:44:00.588Z,5.12
2018-12-24T11:45:00.317Z,5.12
2018-12-24T11:46:57.468Z,5.09
2018-12-24T11:47:57.411Z,5.09
2018-12-24T11:49:54.647Z,5.19
2018-12-24T11:50:54.573Z,5.09
2018-12-24T11:52:50.460Z,5.14
2018-12-24T11:53:50.410Z,5.14
2018-12-24T11:55:46.884Z,5.20
2018-12-24T11:56:46.817Z,5.29
2018-12-24T11:58:42.298Z,5.23
2018-12-24T11:59:42.244Z,5.32
2018-12-24T12:01:38.675Z,5.33
2018-12-24T12:02:39.091Z,5.30
2018-12-24T12:04:35.028Z,5.33
2018-12-24T12:05:34.982Z,5.32
2018-12-24T12:07:30.497Z,5.37
2018-12-24T12:08:30.437Z,5.32
2018-12-24T12:10:26.048Z,5.26
2018-12-24T12:11:25.979Z,5.32
2018-12-24T12:13:27.490Z,5.33
2018-12-24T12:14:23.034Z,5.30
2018-12-24T12:16:19.486Z,5.35
2018-12-24T12:17:19.429Z,5.33
2018-12-24T12:19:15.129Z,5.26
2018-12-24T12:20:15.086Z,5.24
2018-12-24T12:22:13.439Z,5.17
2018-12-24T12:23:13.381Z,5.23
2018-12-24T12:25:10.443Z,5.23
2018-12-24T12:26:10.394Z,5.29
2018-12-24T12:28:07.955Z,5.24
2018-12-24T12:29:07.888Z,5.17
2018-12-24T12:31:03.424Z,5.23
2018-12-24T12:32:03.353Z,5.23
2018-12-24T12:34:01.455Z,5.27
2018-12-24T12:35:12.490Z,5.29
2018-12-24T12:36:59.446Z,5.37
2018-12-24T12:37:59.409Z,5.32
2018-12-24T12:39:55.890Z,5.30
2018-12-24T12:40:55.826Z,5.32
2018-12-24T12:42:51.404Z,5.37
2018-12-24T12:43:51.339Z,5.44
2018-12-24T12:45:51.344Z,5.27
2018-12-24T12:46:48.425Z,5.33
2018-12-24T12:48:44.826Z,5.27
2018-12-24T12:49:44.775Z,5.27
2018-12-24T12:51:41.779Z,5.26
2018-12-24T12:52:41.802Z,5.24
2018-12-24T12:54:38.363Z,5.27
2018-12-24T12:55:38.321Z,5.24
2018-12-24T12:59:11.281Z,5.27
2018-12-24T13:00:11.225Z,5.24
2018-12-24T13:02:05.632Z,5.26
2018-12-24T13:03:05.679Z,5.23
2018-12-24T13:05:02.656Z,5.24
2018-12-24T13:06:02.597Z,5.22
2018-12-24T13:08:00.730Z,5.24
2018-12-24T13:09:00.675Z,5.37
2018-12-24T13:10:55.071Z,5.32
2018-12-24T13:11:55.021Z,5.17
2018-12-24T13:13:50.479Z,5.19
2018-12-24T13:14:50.421Z,5.23
2018-12-24T13:16:46.112Z,5.22
2018-12-24T13:17:46.067Z,5.32
2018-12-24T13:19:42.548Z,5.26
2018-12-24T13:20:42.495Z,5.26
2018-12-24T13:22:39.487Z,5.26
2018-12-24T13:23:39.902Z,5.27
2018-12-24T13:25:34.891Z,5.32
2018-12-24T13:26:34.843Z,5.32
2018-12-24T13:28:31.603Z,5.38
2018-12-24T13:29:31.509Z,5.41
2018-12-24T13:31:27.015Z,5.48
2018-12-24T13:32:26.969Z,5.35
2018-12-24T13:34:22.529Z,5.26
2018-12-24T13:35:22.468Z,5.33
2018-12-24T13:37:18.253Z,5.20
2018-12-24T13:38:18.207Z,5.17
2018-12-24T13:40:14.665Z,5.04
2018-12-24T13:41:14.608Z,5.06
2018-12-24T13:43:12.629Z,4.99
2018-12-24T13:44:12.572Z,5.02
2018-12-24T13:46:08.505Z,4.93
2018-12-24T13:47:08.429Z,4.97
2018-12-24T13:49:03.928Z,4.91
2018-12-24T13:50:03.870Z,4.93
2018-12-24T13:52:01.879Z,4.77
2018-12-24T13:53:01.835Z,4.77
2018-12-24T13:55:00.302Z,4.79
2018-12-24T13:56:00.206Z,4.77
2018-12-24T13:57:57.300Z,4.79
2018-12-24T13:58:57.234Z,4.84
2018-12-24T14:00:54.080Z,4.84
2018-12-24T14:01:54.022Z,4.75
2018-12-24T14:03:51.244Z,4.79
2018-12-24T14:04:51.155Z,4.77
2018-12-24T14:06:47.573Z,4.77
2018-12-24T14:07:47.528Z,4.84
2018-12-24T14:09:44.677Z,4.91
2018-12-24T14:10:44.612Z,4.90
2018-12-24T14:12:40.067Z,4.91
2018-12-24T14:13:40.536Z,4.79
2018-12-24T14:15:36.894Z,4.77
2018-12-24T14:16:36.837Z,4.88
2018-12-24T14:18:33.294Z,4.86
2018-12-24T14:19:33.244Z,4.91
2018-12-24T14:21:30.138Z,4.87
2018-12-24T14:22:30.080Z,4.93
2018-12-24T14:24:26.509Z,4.84
2018-12-24T14:25:26.460Z,4.88
2018-12-24T14:27:22.258Z,4.94
2018-12-24T14:28:22.202Z,4.94
2018-12-24T14:30:18.632Z,5.04
2018-12-24T14:31:18.573Z,5.02
2018-12-24T14:33:17.314Z,4.97
2018-12-24T14:34:28.245Z,5.06
2018-12-24T14:36:14.763Z,5.11
2018-12-24T14:37:14.615Z,5.12
2018-12-24T14:39:10.955Z,5.04
2018-12-24T14:40:10.907Z,5.08
2018-12-24T14:42:07.856Z,5.08
2018-12-24T14:43:07.800Z,5.17
2018-12-24T14:45:04.549Z,5.08
2018-12-24T14:46:04.478Z,5.15
2018-12-24T14:48:12.440Z,5.20
2018-12-24T14:49:12.393Z,5.22
2018-12-24T14:51:09.292Z,5.24
2018-12-24T14:52:09.234Z,5.22
2018-12-24T14:54:06.284Z,5.23
2018-12-24T14:55:06.239Z,5.19
2018-12-24T14:57:03.798Z,5.24
2018-12-24T14:58:03.737Z,5.29
2018-12-24T15:00:01.236Z,5.19
2018-12-24T15:01:01.187Z,5.26
2018-12-24T15:02:57.699Z,5.23
2018-12-24T15:03:57.647Z,5.26
2018-12-24T15:05:53.131Z,5.22
2018-12-24T15:06:53.074Z,5.22
2018-12-24T15:08:49.442Z,5.27
2018-12-24T15:09:49.395Z,5.22
2018-12-24T15:11:45.879Z,5.20
2018-12-24T15:12:45.820Z,5.30
2018-12-24T15:14:41.360Z,5.35
2018-12-24T15:15:41.311Z,5.27
2018-12-24T15:17:37.779Z,5.38
2018-12-24T15:18:37.721Z,5.37
2018-12-24T15:20:47.048Z,5.42
2018-12-24T15:21:47.081Z,5.33
2018-12-24T15:23:43.953Z,5.29
2018-12-24T15:24:43.909Z,5.23
2018-12-24T15:26:39.523Z,5.29
2018-12-24T15:27:39.462Z,5.23
2018-12-24T15:29:35.852Z,5.15
2018-12-24T15:30:46.496Z,5.26
2018-12-24T15:32:31.737Z,5.29
2018-12-24T15:33:31.673Z,5.29
2018-12-24T15:35:28.738Z,5.29
2018-12-24T15:36:28.693Z,5.35
2018-12-24T15:38:25.517Z,5.30
2018-12-24T15:39:25.453Z,5.32
2018-12-24T15:41:22.502Z,5.24
2018-12-24T15:42:22.436Z,5.38
2018-12-24T15:44:18.654Z,5.38
2018-12-24T15:45:18.594Z,5.37
2018-12-24T15:47:15.012Z,5.37
2018-12-24T15:48:14.959Z,5.30
2018-12-24T15:50:11.511Z,5.29
2018-12-24T15:51:11.466Z,5.37
2018-12-24T15:53:10.003Z,5.32
2018-12-24T15:54:09.945Z,5.35
2018-12-24T15:56:07.149Z,5.35
2018-12-24T15:57:07.099Z,5.35
2018-12-24T15:59:03.632Z,5.33
2018-12-24T16:00:03.570Z,5.29
2018-12-24T16:01:59.207Z,5.33
2018-12-24T16:02:59.015Z,5.35
2018-12-24T16:04:57.108Z,5.33
2018-12-24T16:05:57.061Z,5.38
2018-12-24T16:07:52.521Z,5.38
2018-12-24T16:08:52.464Z,5.37
2018-12-24T16:10:48.402Z,5.32
2018-12-24T16:11:48.351Z,5.33
2018-12-24T16:13:43.801Z,5.38
2018-12-24T16:14:43.740Z,5.40
2018-12-24T16:16:40.285Z,5.38
2018-12-24T16:17:40.238Z,5.33
2018-12-24T16:19:49.475Z,5.35
2018-12-24T16:20:49.419Z,5.29
2018-12-24T16:22:46.676Z,5.37
2018-12-24T16:23:46.617Z,5.32
2018-12-24T16:25:43.064Z,5.38
2018-12-24T16:26:43.016Z,5.24
2018-12-24T16:28:39.429Z,5.23
2018-12-24T16:29:39.369Z,5.30
2018-12-24T16:31:35.743Z,5.20
2018-12-24T16:32:35.720Z,5.32
2018-12-24T16:34:32.516Z,5.35
2018-12-24T16:35:32.460Z,5.40
2018-12-24T16:37:28.406Z,5.40
2018-12-24T16:38:28.354Z,5.38
2018-12-24T16:40:25.039Z,5.41
2018-12-24T16:41:24.980Z,5.45
2018-12-24T16:43:21.601Z,5.42
2018-12-24T16:44:21.540Z,5.41
2018-12-24T16:46:18.108Z,5.33
2018-12-24T16:47:18.059Z,5.37
2018-12-24T16:49:14.622Z,5.33
2018-12-24T16:50:14.546Z,5.37
2018-12-24T16:52:12.278Z,5.33
2018-12-24T16:53:12.231Z,5.29
2018-12-24T16:55:08.429Z,5.30
2018-12-24T16:56:08.386Z,5.32
2018-12-24T16:58:08.563Z,5.33
2018-12-24T16:59:08.490Z,5.30
2018-12-24T17:01:05.907Z,5.20
2018-12-24T17:02:05.863Z,5.15
2018-12-24T17:04:02.339Z,5.32
2018-12-24T17:05:02.282Z,5.24
2018-12-24T17:06:59.191Z,5.17
2018-12-24T17:07:59.143Z,5.08
2018-12-24T17:09:55.607Z,5.09
2018-12-24T17:10:55.541Z,5.06
2018-12-24T17:13:02.232Z,4.99
2018-12-24T17:13:52.386Z,5.01
2018-12-24T17:15:47.865Z,4.99
2018-12-24T17:16:47.810Z,4.94
2018-12-24T17:18:55.701Z,4.91
2018-12-24T17:19:55.622Z,4.79
2018-12-24T17:21:52.143Z,4.80
2018-12-24T17:22:52.098Z,4.79
2018-12-24T17:24:48.514Z,4.90
2018-12-24T17:25:48.450Z,4.83
2018-12-24T17:27:44.924Z,4.77
2018-12-24T17:28:44.871Z,4.75
2018-12-24T17:31:05.767Z,4.67
2018-12-24T17:32:05.709Z,4.65
2018-12-24T17:34:02.134Z,4.61
2018-12-24T17:35:02.147Z,4.57
2018-12-24T17:36:58.604Z,4.54
2018-12-24T17:37:58.545Z,4.54
2018-12-24T17:39:55.204Z,4.53
2018-12-24T17:40:55.146Z,4.56
2018-12-24T17:42:51.517Z,4.56
2018-12-24T17:43:51.473Z,4.39
2018-12-24T17:45:48.536Z,4.56
2018-12-24T17:46:48.480Z,4.39
2018-12-24T17:48:44.886Z,4.43
2018-12-24T17:49:44.843Z,4.46
2018-12-24T17:51:54.099Z,4.39
2018-12-24T17:52:54.060Z,4.43
2018-12-24T17:54:50.638Z,4.34
2018-12-24T17:55:50.588Z,4.38
2018-12-24T17:57:46.676Z,4.38
2018-12-24T17:58:46.615Z,4.36
2018-12-24T18:00:45.138Z,4.28
2018-12-24T18:01:45.077Z,4.25
2018-12-24T18:03:42.528Z,4.28
2018-12-24T18:04:42.479Z,4.18
2018-12-24T18:06:39.553Z,4.26
2018-12-24T18:07:39.493Z,4.20
2018-12-24T18:09:35.242Z,4.11
2018-12-24T18:10:35.193Z,4.08
2018-12-24T18:12:31.732Z,4.07
2018-12-24T18:13:31.678Z,4.13
2018-12-24T18:15:27.523Z,4.10
2018-12-24T18:16:27.474Z,3.98
2018-12-24T18:18:23.703Z,4.04
2018-12-24T18:19:23.650Z,4.00
2018-12-24T18:21:20.291Z,4.07
2018-12-24T18:22:20.234Z,4.07
2018-12-24T18:24:17.118Z,4.04
2018-12-24T18:25:17.034Z,4.02
2018-12-24T18:27:14.259Z,3.96
2018-12-24T18:28:14.195Z,3.98
2018-12-24T18:30:11.240Z,4.00
2018-12-24T18:31:11.295Z,3.92
2018-12-24T18:33:07.975Z,3.93
2018-12-24T18:34:07.915Z,3.93
2018-12-24T18:36:04.507Z,4.02
2018-12-24T18:37:04.460Z,3.99
2018-12-24T18:39:00.989Z,3.96
2018-12-24T18:40:00.920Z,3.90
2018-12-24T18:41:57.344Z,4.04
2018-12-24T18:42:57.274Z,3.90
2018-12-24T18:44:53.673Z,3.93
2018-12-24T18:45:53.623Z,3.90
2018-12-24T18:48:03.002Z,3.96
2018-12-24T18:49:02.948Z,3.92
2018-12-24T18:50:59.395Z,3.92
2018-12-24T18:51:59.347Z,3.90
2018-12-24T18:53:55.794Z,3.96
2018-12-24T18:54:55.737Z,3.98
2018-12-24T18:56:51.211Z,3.99
2018-12-24T18:57:51.165Z,4.11
2018-12-24T19:00:00.487Z,4.07
2018-12-24T19:01:00.317Z,3.96
2018-12-24T19:02:56.903Z,3.95
2018-12-24T19:03:56.826Z,4.02
2018-12-24T19:06:05.997Z,3.98
2018-12-24T19:07:05.953Z,3.89
2018-12-24T19:09:02.856Z,3.95
2018-12-24T19:10:02.453Z,3.89
2018-12-24T19:11:58.750Z,3.82
2018-12-24T19:12:58.703Z,3.78
2018-12-24T19:15:07.985Z,3.86
2018-12-24T19:16:07.921Z,3.81
2018-12-24T19:18:04.488Z,3.84
2018-12-24T19:19:04.427Z,3.84
2018-12-24T19:21:00.869Z,3.88
2018-12-24T19:22:00.823Z,3.95
2018-12-24T19:23:57.268Z,3.92
2018-12-24T19:24:57.207Z,3.86
2018-12-24T19:26:53.592Z,3.86
2018-12-24T19:27:53.538Z,3.86
2018-12-24T19:29:50.048Z,3.81
2018-12-24T19:30:49.986Z,3.84
2018-12-24T19:32:47.046Z,3.98
2018-12-24T19:33:47.164Z,4.00
2018-12-24T19:35:43.881Z,3.98
2018-12-24T19:36:43.822Z,4.00
2018-12-24T19:38:39.865Z,3.89
2018-12-24T19:39:39.806Z,4.04
2018-12-24T19:41:35.616Z,3.99
2018-12-24T19:42:35.567Z,4.07
2018-12-24T19:44:32.629Z,4.02
2018-12-24T19:45:32.629Z,4.06